sensor_id;sensor_type;location;lat;lon;timestamp;temperature;humidity
63407;SHT31;49543;45.892;10.838;2022-12-18T08:05:29;3.66;81.82
63407;SHT31;49543;45.892;10.838;2022-12-18T09:44:00;10.03;60.06
63407;SHT31;49543;45.892;10.838;2022-12-18T09:46:27;10.18;60.11
63407;SHT31;49543;45.892;10.838;2022-12-18T09:48:54;9.97;60.30
63407;SHT31;49543;45.892;10.838;2022-12-18T09:51:22;10.35;60.08
63407;SHT31;49543;45.892;10.838;2022-12-18T09:53:55;10.56;58.82
63407;SHT31;49543;45.892;10.838;2022-12-18T09:56:22;10.84;58.76
63407;SHT31;49543;45.892;10.838;2022-12-18T09:58:58;11.21;58.37
63407;SHT31;49543;45.892;10.838;2022-12-18T10:01:23;11.48;57.48
63407;SHT31;49543;45.892;10.838;2022-12-18T10:03:49;11.90;57.24
63407;SHT31;49543;45.892;10.838;2022-12-18T10:06:18;11.87;59.23
63407;SHT31;49543;45.892;10.838;2022-12-18T10:08:58;12.23;60.14
63407;SHT31;49543;45.892;10.838;2022-12-18T10:13:55;12.10;57.30
63407;SHT31;49543;45.892;10.838;2022-12-18T10:16:31;12.16;57.89
63407;SHT31;49543;45.892;10.838;2022-12-18T10:21:32;12.45;56.21
63407;SHT31;49543;45.892;10.838;2022-12-18T10:26:24;13.13;54.66
63407;SHT31;49543;45.892;10.838;2022-12-18T10:28:50;13.33;53.27
63407;SHT31;49543;45.892;10.838;2022-12-18T10:31:17;13.41;53.45
63407;SHT31;49543;45.892;10.838;2022-12-18T10:33:42;13.53;53.03
63407;SHT31;49543;45.892;10.838;2022-12-18T10:36:08;13.37;54.35
63407;SHT31;49543;45.892;10.838;2022-12-18T10:38:34;13.51;53.45
63407;SHT31;49543;45.892;10.838;2022-12-18T10:41:00;13.58;54.54
63407;SHT31;49543;45.892;10.838;2022-12-18T10:43:30;13.50;55.32
63407;SHT31;49543;45.892;10.838;2022-12-18T10:46:05;13.74;53.76
63407;SHT31;49543;45.892;10.838;2022-12-18T10:53:50;13.36;53.66
63407;SHT31;49543;45.892;10.838;2022-12-18T10:56:16;13.61;52.71
63407;SHT31;49543;45.892;10.838;2022-12-18T10:58:44;13.62;52.31
63407;SHT31;49543;45.892;10.838;2022-12-18T11:01:19;13.64;51.84
63407;SHT31;49543;45.892;10.838;2022-12-18T11:06:21;13.59;51.49
63407;SHT31;49543;45.892;10.838;2022-12-18T11:11:27;13.89;56.36
63407;SHT31;49543;45.892;10.838;2022-12-18T11:14:05;13.95;55.74
63407;SHT31;49543;45.892;10.838;2022-12-18T11:16:36;14.09;53.54
63407;SHT31;49543;45.892;10.838;2022-12-18T11:21:49;14.54;52.47
63407;SHT31;49543;45.892;10.838;2022-12-18T11:24:23;14.75;50.97
63407;SHT31;49543;45.892;10.838;2022-12-18T11:26:49;14.65;50.45
63407;SHT31;49543;45.892;10.838;2022-12-18T11:29:16;14.82;50.22
63407;SHT31;49543;45.892;10.838;2022-12-18T11:31:42;14.85;49.60
63407;SHT31;49543;45.892;10.838;2022-12-18T11:36:34;14.69;48.68
63407;SHT31;49543;45.892;10.838;2022-12-18T11:39:04;14.67;49.12
63407;SHT31;49543;45.892;10.838;2022-12-18T11:41:46;14.57;49.50
63407;SHT31;49543;45.892;10.838;2022-12-18T11:47:23;14.14;52.43
63407;SHT31;49543;45.892;10.838;2022-12-18T11:49:50;14.26;54.13
63407;SHT31;49543;45.892;10.838;2022-12-18T11:54:42;14.31;51.70
63407;SHT31;49543;45.892;10.838;2022-12-18T11:57:20;14.38;53.22
63407;SHT31;49543;45.892;10.838;2022-12-18T12:00:33;14.54;53.20
63407;SHT31;49543;45.892;10.838;2022-12-18T12:08:05;14.96;51.06
63407;SHT31;49543;45.892;10.838;2022-12-18T12:15:38;14.65;53.06
63407;SHT31;49543;45.892;10.838;2022-12-18T12:23:01;12.34;56.06
63407;SHT31;49543;45.892;10.838;2022-12-18T12:38:27;10.66;66.58
63407;SHT31;49543;45.892;10.838;2022-12-18T12:43:33;9.89;68.38
63407;SHT31;49543;45.892;10.838;2022-12-18T12:46:02;9.46;69.90
63407;SHT31;49543;45.892;10.838;2022-12-18T12:50:53;9.63;69.48
63407;SHT31;49543;45.892;10.838;2022-12-18T12:53:30;9.60;69.50
63407;SHT31;49543;45.892;10.838;2022-12-18T12:55:56;9.56;70.43
63407;SHT31;49543;45.892;10.838;2022-12-18T13:00:52;9.34;70.69
63407;SHT31;49543;45.892;10.838;2022-12-18T13:06:05;9.03;70.43
63407;SHT31;49543;45.892;10.838;2022-12-18T13:08:51;8.96;71.60
63407;SHT31;49543;45.892;10.838;2022-12-18T13:11:38;8.90;71.87
63407;SHT31;49543;45.892;10.838;2022-12-18T13:14:21;8.60;72.40
63407;SHT31;49543;45.892;10.838;2022-12-18T13:16:47;8.62;72.15
63407;SHT31;49543;45.892;10.838;2022-12-18T13:19:21;8.59;71.73
63407;SHT31;49543;45.892;10.838;2022-12-18T13:21:52;8.66;72.43
63407;SHT31;49543;45.892;10.838;2022-12-18T13:26:49;8.77;70.82
63407;SHT31;49543;45.892;10.838;2022-12-18T13:29:39;8.77;70.94
63407;SHT31;49543;45.892;10.838;2022-12-18T13:32:00;8.53;72.80
63407;SHT31;49543;45.892;10.838;2022-12-18T13:34:28;8.50;73.21
63407;SHT31;49543;45.892;10.838;2022-12-18T13:36:55;8.45;73.55
63407;SHT31;49543;45.892;10.838;2022-12-18T13:39:22;8.42;73.87
63407;SHT31;49543;45.892;10.838;2022-12-18T13:41:52;8.43;73.62
63407;SHT31;49543;45.892;10.838;2022-12-18T13:44:32;8.31;72.54
63407;SHT31;49543;45.892;10.838;2022-12-18T13:46:58;8.32;72.34
63407;SHT31;49543;45.892;10.838;2022-12-18T13:49:25;8.25;72.42
63407;SHT31;49543;45.892;10.838;2022-12-18T13:51:52;8.08;73.22
63407;SHT31;49543;45.892;10.838;2022-12-18T13:56:44;7.94;73.76
63407;SHT31;49543;45.892;10.838;2022-12-18T14:01:52;7.91;74.49
63407;SHT31;49543;45.892;10.838;2022-12-18T14:04:18;7.87;74.46
63407;SHT31;49543;45.892;10.838;2022-12-18T19:24:19;4.54;79.37
63407;SHT31;49543;45.892;10.838;2022-12-18T19:26:45;4.57;79.57
63407;SHT31;49543;45.892;10.838;2022-12-18T19:29:11;4.59;79.27
63407;SHT31;49543;45.892;10.838;2022-12-18T19:31:38;4.52;80.03
63407;SHT31;49543;45.892;10.838;2022-12-18T19:34:05;4.52;79.60
63407;SHT31;49543;45.892;10.838;2022-12-18T19:36:31;4.43;79.36
63407;SHT31;49543;45.892;10.838;2022-12-18T19:38:57;4.40;79.50
63407;SHT31;49543;45.892;10.838;2022-12-18T19:41:24;4.39;79.87
63407;SHT31;49543;45.892;10.838;2022-12-18T19:43:49;4.38;79.66
63407;SHT31;49543;45.892;10.838;2022-12-18T19:46:16;4.32;80.21
63407;SHT31;49543;45.892;10.838;2022-12-18T19:48:41;4.35;80.12
63407;SHT31;49543;45.892;10.838;2022-12-18T19:51:08;4.25;78.76
63407;SHT31;49543;45.892;10.838;2022-12-18T19:53:33;4.23;78.55
63407;SHT31;49543;45.892;10.838;2022-12-18T19:56:03;4.13;79.46
63407;SHT31;49543;45.892;10.838;2022-12-18T19:58:29;4.12;80.63
63407;SHT31;49543;45.892;10.838;2022-12-18T20:00:54;4.19;80.58
63407;SHT31;49543;45.892;10.838;2022-12-18T20:03:20;4.23;79.81
63407;SHT31;49543;45.892;10.838;2022-12-18T20:05:45;4.26;79.60
63407;SHT31;49543;45.892;10.838;2022-12-18T20:08:10;4.21;79.80
63407;SHT31;49543;45.892;10.838;2022-12-18T20:10:36;4.01;80.75
63407;SHT31;49543;45.892;10.838;2022-12-18T20:13:01;4.09;80.50
63407;SHT31;49543;45.892;10.838;2022-12-18T20:15:26;4.06;80.07
63407;SHT31;49543;45.892;10.838;2022-12-18T20:17:52;3.99;80.46
63407;SHT31;49543;45.892;10.838;2022-12-18T20:20:17;3.99;80.31
63407;SHT31;49543;45.892;10.838;2022-12-18T20:22:42;3.91;80.33
63407;SHT31;49543;45.892;10.838;2022-12-18T20:25:08;3.85;81.07
63407;SHT31;49543;45.892;10.838;2022-12-18T20:27:34;3.70;81.54
63407;SHT31;49543;45.892;10.838;2022-12-18T20:29:59;3.73;81.76
63407;SHT31;49543;45.892;10.838;2022-12-18T20:32:25;3.81;81.59
63407;SHT31;49543;45.892;10.838;2022-12-18T20:34:50;3.84;81.14
63407;SHT31;49543;45.892;10.838;2022-12-18T20:37:15;3.83;81.34
63407;SHT31;49543;45.892;10.838;2022-12-18T20:39:41;3.87;81.12
63407;SHT31;49543;45.892;10.838;2022-12-18T20:42:06;3.88;80.89
63407;SHT31;49543;45.892;10.838;2022-12-18T20:44:31;3.75;81.33
63407;SHT31;49543;45.892;10.838;2022-12-18T20:46:57;3.78;81.76
63407;SHT31;49543;45.892;10.838;2022-12-18T20:49:24;3.87;81.48
63407;SHT31;49543;45.892;10.838;2022-12-18T20:51:51;3.84;81.40
63407;SHT31;49543;45.892;10.838;2022-12-18T20:54:30;3.87;81.06
63407;SHT31;49543;45.892;10.838;2022-12-18T20:56:55;3.91;81.00
63407;SHT31;49543;45.892;10.838;2022-12-18T20:59:21;3.95;81.28
63407;SHT31;49543;45.892;10.838;2022-12-18T21:01:49;3.98;81.50
63407;SHT31;49543;45.892;10.838;2022-12-18T21:04:16;3.93;80.93
63407;SHT31;49543;45.892;10.838;2022-12-18T21:06:41;3.94;80.93
63407;SHT31;49543;45.892;10.838;2022-12-18T21:09:07;3.88;81.29
63407;SHT31;49543;45.892;10.838;2022-12-18T21:11:32;3.90;81.52
63407;SHT31;49543;45.892;10.838;2022-12-18T21:14:21;3.95;81.52
63407;SHT31;49543;45.892;10.838;2022-12-18T21:16:47;3.97;81.28
63407;SHT31;49543;45.892;10.838;2022-12-18T21:19:14;3.93;80.91
63407;SHT31;49543;45.892;10.838;2022-12-18T21:21:39;3.94;80.32
63407;SHT31;49543;45.892;10.838;2022-12-18T21:24:05;3.99;79.86
63407;SHT31;49543;45.892;10.838;2022-12-18T21:26:31;3.95;80.23
63407;SHT31;49543;45.892;10.838;2022-12-18T21:28:57;4.01;80.43
63407;SHT31;49543;45.892;10.838;2022-12-18T21:31:35;3.95;80.07
63407;SHT31;49543;45.892;10.838;2022-12-18T21:34:01;3.97;80.20
63407;SHT31;49543;45.892;10.838;2022-12-18T21:36:27;3.93;79.76
63407;SHT31;49543;45.892;10.838;2022-12-18T21:38:53;3.88;80.66
63407;SHT31;49543;45.892;10.838;2022-12-18T21:41:18;3.91;80.26
63407;SHT31;49543;45.892;10.838;2022-12-18T21:44:02;3.93;80.76
63407;SHT31;49543;45.892;10.838;2022-12-18T21:46:31;3.87;81.11
63407;SHT31;49543;45.892;10.838;2022-12-18T21:48:57;3.88;81.05
63407;SHT31;49543;45.892;10.838;2022-12-18T21:51:22;3.88;80.57
63407;SHT31;49543;45.892;10.838;2022-12-18T21:53:48;3.81;80.12
63407;SHT31;49543;45.892;10.838;2022-12-18T21:56:13;3.74;81.01
63407;SHT31;49543;45.892;10.838;2022-12-18T21:58:38;3.73;81.48
63407;SHT31;49543;45.892;10.838;2022-12-18T22:01:04;3.64;82.07
63407;SHT31;49543;45.892;10.838;2022-12-18T22:03:29;3.71;81.58
63407;SHT31;49543;45.892;10.838;2022-12-18T22:05:58;3.80;81.10
63407;SHT31;49543;45.892;10.838;2022-12-18T22:08:23;3.74;81.14
63407;SHT31;49543;45.892;10.838;2022-12-18T22:10:48;3.77;81.12
63407;SHT31;49543;45.892;10.838;2022-12-18T22:13:14;3.73;80.65
63407;SHT31;49543;45.892;10.838;2022-12-18T22:15:39;3.71;80.90
63407;SHT31;49543;45.892;10.838;2022-12-18T22:18:04;3.70;80.63
63407;SHT31;49543;45.892;10.838;2022-12-18T22:20:30;3.64;80.99
63407;SHT31;49543;45.892;10.838;2022-12-18T22:22:55;3.63;80.93
63407;SHT31;49543;45.892;10.838;2022-12-18T22:25:21;3.64;81.25
63407;SHT31;49543;45.892;10.838;2022-12-18T22:27:46;3.67;81.21
63407;SHT31;49543;45.892;10.838;2022-12-18T22:30:31;3.71;80.65
63407;SHT31;49543;45.892;10.838;2022-12-18T22:32:57;3.67;81.10
63407;SHT31;49543;45.892;10.838;2022-12-18T22:35:22;3.67;81.44
63407;SHT31;49543;45.892;10.838;2022-12-18T22:37:47;3.69;81.66
63407;SHT31;49543;45.892;10.838;2022-12-18T22:40:20;3.73;81.44
63407;SHT31;49543;45.892;10.838;2022-12-18T22:42:45;3.77;81.85
63407;SHT31;49543;45.892;10.838;2022-12-18T22:45:11;3.77;82.15
63407;SHT31;49543;45.892;10.838;2022-12-18T22:47:37;3.81;82.04
63407;SHT31;49543;45.892;10.838;2022-12-18T22:50:02;3.80;82.50
63407;SHT31;49543;45.892;10.838;2022-12-18T22:52:28;3.84;82.43
63407;SHT31;49543;45.892;10.838;2022-12-18T22:54:53;3.87;81.90
63407;SHT31;49543;45.892;10.838;2022-12-18T22:57:19;3.90;81.86
63407;SHT31;49543;45.892;10.838;2022-12-18T22:59:44;3.85;81.31
63407;SHT31;49543;45.892;10.838;2022-12-18T23:02:09;3.90;82.12
63407;SHT31;49543;45.892;10.838;2022-12-18T23:04:35;3.93;81.93
63407;SHT31;49543;45.892;10.838;2022-12-18T23:07:00;3.98;81.60
63407;SHT31;49543;45.892;10.838;2022-12-18T23:09:26;3.91;82.09
63407;SHT31;49543;45.892;10.838;2022-12-18T23:11:52;3.88;81.61
63407;SHT31;49543;45.892;10.838;2022-12-18T23:14:17;3.90;81.32
63407;SHT31;49543;45.892;10.838;2022-12-18T23:19:19;4.05;81.69
63407;SHT31;49543;45.892;10.838;2022-12-18T23:21:45;4.05;81.91
